Time;durP1;ratioP1;P1;durP2;ratioP2;P2;SDS_P1;SDS_P2;PMS_P1;PMS_P2;Temp;Humidity;BMP_temperature;BMP_pressure;BME280_temperature;BME280_humidity;BME280_pressure;Samples;Min_cycle;Max_cycle;Signal;HPM_P1;HPM_P2
2022/06/11 00:01:35;;;;;;;2.97;1.25;;;23.30;57.40;;;;;;5042740;28;20403;-50
2022/06/11 00:04:09;;;;;;;3.08;1.63;;;23.20;57.60;;;;;;5040412;28;20038;-48
2022/06/11 00:06:41;;;;;;;3.60;1.60;;;23.10;57.60;;;;;;5029135;28;20588;-49
2022/06/11 00:09:09;;;;;;;2.60;1.80;;;23.00;57.60;;;;;;5031250;28;20050;-49
2022/06/11 00:11:38;;;;;;;2.30;1.40;;;22.90;57.70;;;;;;5041670;28;20091;-51
2022/06/11 00:14:15;;;;;;;3.58;1.73;;;22.80;57.90;;;;;;5034067;28;20048;-49
2022/06/11 00:16:44;;;;;;;2.72;1.23;;;22.70;58.00;;;;;;5032332;28;20474;-48
2022/06/11 00:19:19;;;;;;;3.38;1.27;;;22.60;58.00;;;;;;5029289;28;20037;-50
2022/06/11 00:21:46;;;;;;;3.55;1.63;;;22.50;58.10;;;;;;5041347;28;20408;-47
2022/06/11 00:24:13;;;;;;;5.25;2.20;;;22.40;58.10;;;;;;5050558;28;20049;-54
2022/06/11 00:26:50;;;;;;;3.00;1.40;;;22.40;58.50;;;;;;5043406;28;20077;-48
2022/06/11 00:29:23;;;;;;;4.22;1.60;;;22.30;58.60;;;;;;5013130;28;20045;-52
2022/06/11 00:31:55;;;;;;;4.22;1.55;;;22.10;58.50;;;;;;5042877;28;20090;-49
2022/06/11 00:34:26;;;;;;;2.72;1.20;;;22.10;58.60;;;;;;5049758;28;20049;-50
2022/06/11 00:36:54;;;;;;;4.13;1.80;;;21.90;58.60;;;;;;5029640;28;20095;-51
2022/06/11 00:39:25;;;;;;;1.40;1.30;;;21.80;58.50;;;;;;5030462;28;20096;-50
2022/06/11 00:41:55;;;;;;;5.22;1.52;;;21.70;58.90;;;;;;5030668;28;20107;-51
2022/06/11 00:44:22;;;;;;;5.22;1.75;;;21.60;58.90;;;;;;5029534;28;20053;-53
2022/06/11 00:46:59;;;;;;;2.63;1.75;;;21.60;58.90;;;;;;5033365;28;20102;-49
2022/06/11 00:49:34;;;;;;;3.83;1.45;;;21.20;58.80;;;;;;5042245;28;20049;-49
2022/06/11 00:52:05;;;;;;;;;;;21.30;59.00;;;;;;5030198;28;20103;-50
2022/06/11 00:54:33;;;;;;;4.13;1.50;;;21.20;58.70;;;;;;5025234;28;20021;-47
2022/06/11 00:57:04;;;;;;;4.68;2.25;;;21.10;58.60;;;;;;5040095;28;20118;-50
2022/06/11 00:59:40;;;;;;;5.50;1.95;;;21.00;59.00;;;;;;5041121;28;20622;-47
2022/06/11 01:02:10;;;;;;;5.07;1.73;;;20.90;59.30;;;;;;5050957;28;20048;-48
2022/06/11 01:04:55;;;;;;;5.10;1.50;;;20.80;59.40;;;;;;5036234;28;20126;-46
2022/06/11 01:07:31;;;;;;;2.83;1.30;;;20.70;60.10;;;;;;5040834;28;20132;-51
2022/06/11 01:10:10;;;;;;;4.05;1.80;;;20.60;60.20;;;;;;5043722;28;20068;-48
2022/06/11 01:13:01;;;;;;;2.33;1.48;;;20.50;60.40;;;;;;5032233;28;20041;-47
2022/06/11 01:15:34;;;;;;;1.73;1.45;;;20.50;60.50;;;;;;5033468;28;20044;-47
2022/06/11 01:18:28;;;;;;;2.28;1.38;;;20.40;60.30;;;;;;5040785;28;20524;-50
2022/06/11 01:21:07;;;;;;;4.07;2.05;;;20.30;60.60;;;;;;5042841;28;20038;-49
2022/06/11 01:23:47;;;;;;;6.65;2.10;;;20.30;60.90;;;;;;5036272;28;20092;-48
2022/06/11 01:26:56;;;;;;;3.33;1.65;;;20.20;60.60;;;;;;5040484;28;20098;-47
2022/06/11 01:29:52;;;;;;;3.78;2.22;;;20.10;61.20;;;;;;4998698;28;20053;-50
2022/06/11 01:32:48;;;;;;;4.25;1.52;;;20.10;61.20;;;;;;5027983;28;20054;-49
2022/06/11 01:35:26;;;;;;;4.82;1.60;;;20.00;61.20;;;;;;5016143;28;20089;-52
2022/06/11 01:38:03;;;;;;;4.53;1.98;;;19.90;61.20;;;;;;5044539;28;20048;-48
2022/06/11 01:40:59;;;;;;;4.53;1.95;;;19.90;61.00;;;;;;5034820;28;20040;-48
2022/06/11 01:43:55;;;;;;;2.97;1.90;;;19.80;61.40;;;;;;5039215;28;20044;-48
2022/06/11 01:46:32;;;;;;;3.45;1.80;;;19.80;61.50;;;;;;5036586;28;20057;-48
2022/06/11 01:49:05;;;;;;;4.47;1.98;;;19.70;61.50;;;;;;5030061;28;20041;-47
2022/06/11 01:52:12;;;;;;;4.05;1.50;;;19.70;61.30;;;;;;5015561;28;20029;-51
2022/06/11 01:55:13;;;;;;;4.53;1.90;;;19.60;61.70;;;;;;5037548;28;20052;-48
2022/06/11 01:57:47;;;;;;;1.98;1.83;;;19.60;61.60;;;;;;5023690;28;20102;-47
2022/06/11 02:00:22;;;;;;;2.28;1.63;;;19.50;61.20;;;;;;5044621;28;20103;-49
2022/06/11 02:03:09;;;;;;;3.45;1.75;;;19.50;61.90;;;;;;5040696;28;20087;-51
2022/06/11 02:06:05;;;;;;;6.20;2.25;;;19.40;62.30;;;;;;5031604;28;20041;-48
2022/06/11 02:08:43;;;;;;;3.33;1.83;;;19.40;62.40;;;;;;5049046;28;20033;-48
2022/06/11 02:11:20;;;;;;;3.05;1.67;;;19.40;62.10;;;;;;5029032;28;20520;-49
2022/06/11 02:14:09;;;;;;;2.35;1.63;;;19.30;62.20;;;;;;5030177;28;20064;-48
2022/06/11 02:17:18;;;;;;;1.83;1.70;;;19.30;62.60;;;;;;5027883;28;20064;-51
2022/06/11 02:19:52;;;;;;;5.07;1.80;;;19.30;63.30;;;;;;5032412;28;20049;-48
2022/06/11 02:22:48;;;;;;;2.20;1.60;;;19.30;62.60;;;;;;5036166;28;20049;-51
2022/06/11 02:25:27;;;;;;;2.03;1.83;;;19.30;63.20;;;;;;5027841;28;20080;-52
2022/06/11 02:27:57;;;;;;;2.38;2.03;;;19.30;63.60;;;;;;5029905;28;20050;-50
2022/06/11 02:30:29;;;;;;;2.72;2.10;;;19.20;63.60;;;;;;5034094;28;20497;-47
2022/06/11 02:32:57;;;;;;;3.50;2.33;;;19.20;64.10;;;;;;5040243;28;20037;-51
2022/06/11 02:35:53;;;;;;;3.42;2.08;;;19.20;64.10;;;;;;5047407;28;20470;-49
2022/06/11 02:38:27;;;;;;;2.55;1.65;;;19.20;64.90;;;;;;5033769;28;20083;-47
2022/06/11 02:41:05;;;;;;;2.75;1.83;;;19.20;63.90;;;;;;5019410;28;20045;-53
2022/06/11 02:43:36;;;;;;;2.63;1.73;;;19.20;64.00;;;;;;5032106;28;20091;-50
2022/06/11 02:46:40;;;;;;;2.60;1.88;;;19.30;63.70;;;;;;5025383;28;20045;-50
2022/06/11 02:48:52;;;;;;;2.50;1.52;;;19.30;63.60;;;;;;5025702;28;20048;-49
2022/06/11 02:51:27;;;;;;;4.77;1.53;;;19.20;63.20;;;;;;5037518;28;20116;-49
2022/06/11 02:53:58;;;;;;;8.47;1.63;;;19.20;63.20;;;;;;5027761;28;20068;-49
2022/06/11 02:56:28;;;;;;;6.00;1.65;;;19.20;62.80;;;;;;5025239;28;20041;-46
2022/06/11 02:58:55;;;;;;;3.70;1.80;;;19.20;62.60;;;;;;5038301;28;20100;-48
2022/06/11 03:01:27;;;;;;;2.40;1.77;;;19.10;62.50;;;;;;5048004;28;20040;-48
2022/06/11 03:03:54;;;;;;;4.78;1.80;;;19.10;62.40;;;;;;5039608;28;20049;-46
2022/06/11 03:06:29;;;;;;;2.22;1.50;;;19.00;62.10;;;;;;5026000;28;20076;-48
2022/06/11 03:08:57;;;;;;;1.70;1.20;;;19.00;62.20;;;;;;5046118;28;20045;-48
2022/06/11 03:11:30;;;;;;;1.65;1.15;;;18.90;62.10;;;;;;5051375;28;20033;-47
2022/06/11 03:14:02;;;;;;;1.98;1.67;;;18.90;62.10;;;;;;5052422;28;20079;-51
2022/06/11 03:16:31;;;;;;;2.20;1.42;;;18.80;62.20;;;;;;5028405;28;20048;-49
2022/06/11 03:18:58;;;;;;;3.72;1.30;;;18.80;62.10;;;;;;5022986;28;20128;-48
2022/06/11 03:21:25;;;;;;;1.60;1.50;;;18.70;62.10;;;;;;5033423;28;20448;-48
2022/06/11 03:23:52;;;;;;;3.63;2.22;;;18.70;62.10;;;;;;5033058;28;20049;-47
2022/06/11 03:26:25;;;;;;;1.92;1.70;;;18.60;62.20;;;;;;5027815;28;20038;-50
2022/06/11 03:28:55;;;;;;;3.58;1.63;;;18.60;62.20;;;;;;5041427;28;20546;-49
2022/06/11 03:31:24;;;;;;;2.28;1.50;;;18.50;62.30;;;;;;5044708;28;20052;-48
2022/06/11 03:33:54;;;;;;;2.58;1.60;;;18.50;62.40;;;;;;5052388;28;20102;-48
2022/06/11 03:36:20;;;;;;;1.67;1.55;;;18.50;62.70;;;;;;5029576;28;20045;-47
2022/06/11 03:38:48;;;;;;;3.53;1.95;;;18.40;62.90;;;;;;5028603;28;20034;-47
2022/06/11 03:41:16;;;;;;;3.97;2.47;;;18.40;63.20;;;;;;5025346;28;20041;-48
2022/06/11 03:43:45;;;;;;;2.55;2.22;;;18.40;63.50;;;;;;5029882;28;20052;-49
2022/06/11 03:46:15;;;;;;;3.10;1.73;;;18.40;63.50;;;;;;5043347;28;20053;-50
2022/06/11 03:48:42;;;;;;;9.32;2.10;;;18.40;63.70;;;;;;5036784;28;20052;-47
2022/06/11 03:51:09;;;;;;;3.25;2.25;;;18.40;63.90;;;;;;5032693;28;20038;-50
2022/06/11 03:53:44;;;;;;;1.92;1.73;;;18.40;64.00;;;;;;5031104;28;20098;-47
2022/06/11 03:56:13;;;;;;;3.53;2.03;;;18.40;64.30;;;;;;5013687;28;20049;-47
2022/06/11 03:58:46;;;;;;;1.83;1.70;;;18.50;64.60;;;;;;5027309;28;20057;-51
2022/06/11 04:01:18;;;;;;;4.40;2.30;;;18.50;65.20;;;;;;5027009;28;20094;-49
2022/06/11 04:03:54;;;;;;;3.60;2.38;;;18.60;65.70;;;;;;5029100;28;20523;-48
2022/06/11 04:06:32;;;;;;;5.88;3.33;;;18.60;66.50;;;;;;5028399;28;20052;-48
2022/06/11 04:09:00;;;;;;;3.83;2.28;;;18.80;67.70;;;;;;5030317;28;20076;-50
2022/06/11 04:11:28;;;;;;;2.65;2.33;;;18.80;67.40;;;;;;5028050;28;20053;-51
2022/06/11 04:14:02;;;;;;;3.05;2.40;;;18.90;67.60;;;;;;5040069;28;20417;-50
2022/06/11 04:16:48;;;;;;;7.35;2.83;;;19.00;68.00;;;;;;5042705;28;20496;-50
2022/06/11 04:19:44;;;;;;;5.70;2.92;;;19.10;68.40;;;;;;5038528;28;20042;-50
2022/06/11 04:22:11;;;;;;;6.22;2.53;;;19.30;68.80;;;;;;5025225;28;20061;-50
2022/06/11 04:24:43;;;;;;;4.65;2.63;;;19.40;68.30;;;;;;5031185;28;20046;-51
2022/06/11 04:27:14;;;;;;;5.93;2.72;;;19.50;68.80;;;;;;5031956;28;20042;-50
2022/06/11 04:29:45;;;;;;;3.37;2.40;;;19.70;68.70;;;;;;5012063;28;20073;-46
2022/06/11 04:32:19;;;;;;;5.13;3.33;;;19.80;68.30;;;;;;5028790;28;20287;-50
2022/06/11 04:34:48;;;;;;;4.78;2.67;;;19.90;68.30;;;;;;5043720;28;20075;-51
2022/06/11 04:37:19;;;;;;;3.83;2.38;;;20.00;68.20;;;;;;5050835;28;20041;-48
2022/06/11 04:39:49;;;;;;;3.63;2.63;;;20.10;68.20;;;;;;5031878;28;20049;-50
2022/06/11 04:42:19;;;;;;;4.53;3.08;;;20.20;68.00;;;;;;5039717;28;20037;-47
2022/06/11 04:44:46;;;;;;;5.75;2.65;;;20.20;67.70;;;;;;5044523;28;20081;-48
2022/06/11 04:47:21;;;;;;;3.40;2.40;;;20.30;67.40;;;;;;5032138;28;20056;-52
2022/06/11 04:49:51;;;;;;;5.05;2.50;;;20.40;67.60;;;;;;5033283;28;20044;-48
2022/06/11 04:52:18;;;;;;;4.88;2.20;;;20.50;67.30;;;;;;5042435;28;20041;-49
2022/06/11 04:54:45;;;;;;;3.58;2.58;;;20.60;66.90;;;;;;5054574;22;20129;-51
2022/06/11 04:57:17;;;;;;;3.70;2.88;;;20.60;66.80;;;;;;5042902;28;20040;-51
2022/06/11 04:59:47;;;;;;;6.28;3.75;;;20.70;66.90;;;;;;5046242;28;20775;-52
2022/06/11 05:02:16;;;;;;;5.50;3.15;;;20.70;66.70;;;;;;5041142;28;20049;-52
2022/06/11 05:04:43;;;;;;;2.55;2.35;;;20.80;66.40;;;;;;5045036;28;20075;-53
2022/06/11 05:07:13;;;;;;;3.97;2.88;;;20.80;66.30;;;;;;5050690;28;20459;-49
2022/06/11 05:09:40;;;;;;;3.25;2.90;;;20.90;66.30;;;;;;5049688;28;20496;-51
2022/06/11 05:12:11;;;;;;;2.97;2.63;;;21.00;66.50;;;;;;5048427;28;20090;-51
2022/06/11 05:14:41;;;;;;;2.92;2.50;;;21.00;66.10;;;;;;5036939;28;20063;-52
2022/06/11 05:17:08;;;;;;;5.32;2.75;;;21.10;65.80;;;;;;5043409;28;20444;-51
2022/06/11 05:19:38;;;;;;;6.63;3.78;;;21.10;65.60;;;;;;5049085;28;20537;-52
2022/06/11 05:22:09;;;;;;;5.32;2.95;;;21.20;65.40;;;;;;5051657;28;20047;-53
2022/06/11 05:24:36;;;;;;;3.78;2.58;;;21.30;65.60;;;;;;5030141;28;20509;-52
2022/06/11 05:27:08;;;;;;;3.03;2.80;;;21.30;65.70;;;;;;5045343;28;20091;-51
2022/06/11 05:29:56;;;;;;;4.78;2.67;;;21.30;65.50;;;;;;5048866;28;20048;-53
2022/06/11 05:32:27;;;;;;;5.03;2.67;;;21.40;65.50;;;;;;5051355;28;20044;-52
2022/06/11 05:34:54;;;;;;;3.72;2.78;;;21.50;65.10;;;;;;5045625;28;20568;-52
2022/06/11 05:37:38;;;;;;;3.33;2.85;;;21.50;65.00;;;;;;5044299;28;20044;-49
2022/06/11 05:40:10;;;;;;;3.10;2.80;;;21.50;64.80;;;;;;5049465;28;20041;-52
2022/06/11 05:42:37;;;;;;;3.10;2.50;;;21.60;64.70;;;;;;5049576;28;20049;-52
2022/06/11 05:45:07;;;;;;;4.18;3.15;;;21.60;64.60;;;;;;5028724;28;20075;-53
2022/06/11 05:47:36;;;;;;;5.25;3.15;;;21.70;64.40;;;;;;5050017;28;20037;-52
2022/06/11 05:50:06;;;;;;;4.03;3.00;;;21.70;64.40;;;;;;5049547;28;20037;-51
2022/06/11 05:52:43;;;;;;;4.30;2.95;;;21.70;64.20;;;;;;5046110;28;20489;-51
2022/06/11 05:55:19;;;;;;;5.95;3.40;;;21.80;64.20;;;;;;5028418;28;20103;-54
2022/06/11 05:57:49;;;;;;;3.30;2.83;;;21.70;63.90;;;;;;5048239;28;20053;-54
2022/06/11 06:00:24;;;;;;;6.25;3.17;;;21.80;64.00;;;;;;5048746;28;20040;-54
2022/06/11 06:02:53;;;;;;;3.42;2.78;;;21.80;63.90;;;;;;5046669;28;20048;-50
2022/06/11 06:05:29;;;;;;;3.45;3.15;;;21.80;64.10;;;;;;5046379;28;20151;-51
2022/06/11 06:07:58;;;;;;;3.63;3.17;;;21.80;64.10;;;;;;5048204;28;20588;-54
2022/06/11 06:10:28;;;;;;;4.22;3.17;;;21.90;64.10;;;;;;5040129;28;20055;-54
2022/06/11 06:12:57;;;;;;;4.22;3.00;;;21.90;63.90;;;;;;5042735;28;20051;-54
2022/06/11 06:15:31;;;;;;;5.75;3.33;;;21.90;63.70;;;;;;5045852;28;20047;-55
2022/06/11 06:17:57;;;;;;;4.60;2.90;;;22.00;63.60;;;;;;5047211;28;20048;-55
2022/06/11 06:20:24;;;;;;;4.05;2.80;;;22.10;63.80;;;;;;5048533;28;20550;-53
2022/06/11 06:22:51;;;;;;;3.08;2.70;;;22.20;63.70;;;;;;5042695;28;20056;-54
2022/06/11 06:25:21;;;;;;;6.18;3.00;;;22.20;63.40;;;;;;5047369;28;20049;-55
2022/06/11 06:27:48;;;;;;;4.60;3.40;;;22.20;62.60;;;;;;5047639;28;20102;-54
2022/06/11 06:30:19;;;;;;;2.90;2.60;;;22.30;62.50;;;;;;5048361;28;20073;-53
2022/06/11 06:32:46;;;;;;;5.22;2.88;;;22.30;62.60;;;;;;5039279;28;20044;-55
2022/06/11 06:35:15;;;;;;;6.57;3.00;;;22.40;62.70;;;;;;5030831;28;20459;-55
2022/06/11 06:37:42;;;;;;;4.03;2.97;;;22.40;62.70;;;;;;5047963;28;20045;-55
2022/06/11 06:40:12;;;;;;;4.30;2.42;;;22.50;62.80;;;;;;5029244;28;20049;-54
2022/06/11 06:42:38;;;;;;;4.15;3.72;;;22.50;62.20;;;;;;5019897;28;20045;-53
2022/06/11 06:45:05;;;;;;;4.97;3.10;;;22.60;61.60;;;;;;5037044;28;20696;-53
2022/06/11 06:47:33;;;;;;;3.58;2.55;;;22.60;61.50;;;;;;5028908;28;20045;-54
2022/06/11 06:49:59;;;;;;;3.80;2.75;;;22.60;61.60;;;;;;5026411;28;20072;-54
2022/06/11 06:52:26;;;;;;;5.00;2.80;;;22.60;61.40;;;;;;5033374;28;20056;-53
2022/06/11 06:54:53;;;;;;;3.33;2.72;;;22.70;61.60;;;;;;5039775;28;20611;-54
2022/06/11 06:57:20;;;;;;;5.65;2.90;;;22.70;61.60;;;;;;5028613;28;20580;-53
2022/06/11 06:59:47;;;;;;;4.85;2.67;;;22.70;61.20;;;;;;5033829;28;20107;-54
2022/06/11 07:02:17;;;;;;;4.00;2.75;;;22.70;61.00;;;;;;5029641;28;20041;-54
2022/06/11 07:04:44;;;;;;;4.30;2.50;;;22.80;60.90;;;;;;5039650;28;20045;-54
2022/06/11 07:07:15;;;;;;;4.30;2.60;;;22.80;61.00;;;;;;5028079;28;20046;-54
2022/06/11 07:09:42;;;;;;;4.47;2.75;;;22.80;60.90;;;;;;5045067;28;20049;-55
2022/06/11 07:12:09;;;;;;;4.60;2.72;;;22.90;60.80;;;;;;5027804;28;20115;-54
2022/06/11 07:14:36;;;;;;;5.05;2.58;;;22.90;60.60;;;;;;5041669;28;20048;-55
2022/06/11 07:17:06;;;;;;;3.03;2.60;;;23.00;60.60;;;;;;5027508;28;20559;-54
2022/06/11 07:19:39;;;;;;;3.80;2.33;;;22.90;60.70;;;;;;5039246;28;20776;-55
2022/06/11 07:22:33;;;;;;;2.80;2.15;;;23.00;60.80;;;;;;5031512;28;20049;-55
2022/06/11 07:25:06;;;;;;;3.25;2.28;;;23.00;60.70;;;;;;5017937;28;20053;-54
2022/06/11 07:27:39;;;;;;;3.28;1.77;;;23.00;60.30;;;;;;5028365;28;20570;-55
2022/06/11 07:30:27;;;;;;;3.55;1.83;;;23.00;60.40;;;;;;5045903;28;20045;-53
2022/06/11 07:33:01;;;;;;;2.20;1.65;;;23.00;60.00;;;;;;5041455;28;20083;-54
2022/06/11 07:35:28;;;;;;;6.20;1.88;;;23.00;59.90;;;;;;5037884;28;20707;-54
2022/06/11 07:37:55;;;;;;;4.57;1.85;;;23.00;59.70;;;;;;5031409;28;20107;-52
2022/06/11 07:40:24;;;;;;;3.13;1.77;;;23.10;59.10;;;;;;5034484;28;20040;-54
2022/06/11 07:42:51;;;;;;;2.55;1.60;;;23.10;58.90;;;;;;5032042;28;20590;-48
2022/06/11 07:45:18;;;;;;;2.97;1.80;;;23.10;59.20;;;;;;5038860;28;20056;-46
2022/06/11 07:47:53;;;;;;;2.22;1.75;;;23.10;59.90;;;;;;5015530;28;20045;-49
2022/06/11 07:50:32;;;;;;;3.22;2.10;;;23.20;59.70;;;;;;5039950;28;20072;-47
2022/06/11 07:53:00;;;;;;;3.80;2.10;;;23.30;57.90;;;;;;5034572;28;20045;-49
2022/06/11 07:55:28;;;;;;;2.95;1.58;;;23.40;58.70;;;;;;5035798;28;20188;-49
2022/06/11 07:57:55;;;;;;;3.80;1.63;;;23.50;58.10;;;;;;5013615;28;20085;-49
2022/06/11 08:00:44;;;;;;;4.47;1.88;;;23.60;57.80;;;;;;5036614;28;20052;-50
2022/06/11 08:03:13;;;;;;;3.63;1.52;;;23.70;57.00;;;;;;5033087;28;20056;-49
2022/06/11 08:05:42;;;;;;;6.43;2.25;;;23.80;56.90;;;;;;5032446;28;20037;-48
2022/06/11 08:08:10;;;;;;;5.25;2.05;;;23.90;56.60;;;;;;5031005;28;20119;-49
2022/06/11 08:10:40;;;;;;;3.05;1.75;;;24.00;56.60;;;;;;5023790;28;21291;-48
2022/06/11 08:13:08;;;;;;;2.65;2.10;;;24.00;55.80;;;;;;5028835;28;20037;-46
2022/06/11 08:15:37;;;;;;;3.55;1.27;;;24.00;55.40;;;;;;5030467;28;20413;-49
2022/06/11 08:18:04;;;;;;;5.95;1.73;;;24.10;55.20;;;;;;5021665;28;20107;-48
2022/06/11 08:20:34;;;;;;;2.63;1.42;;;24.10;55.40;;;;;;5036708;28;20091;-50
2022/06/11 08:23:02;;;;;;;3.47;1.67;;;24.10;54.90;;;;;;5032036;28;20098;-50
2022/06/11 08:25:29;;;;;;;4.53;1.90;;;24.20;54.70;;;;;;5027019;28;20768;-49
2022/06/11 08:27:56;;;;;;;4.22;1.77;;;24.30;54.30;;;;;;5035894;28;20076;-50
2022/06/11 08:30:25;;;;;;;3.60;1.40;;;24.30;53.90;;;;;;5030717;28;20048;-48
2022/06/11 08:32:52;;;;;;;4.90;1.80;;;24.30;53.70;;;;;;5016162;28;20131;-50
2022/06/11 08:35:22;;;;;;;4.22;1.45;;;24.20;54.00;;;;;;5013751;28;20071;-47
2022/06/11 08:37:50;;;;;;;5.85;1.98;;;24.20;53.70;;;;;;5037189;28;20095;-49
2022/06/11 08:40:26;;;;;;;4.68;2.25;;;24.10;53.80;;;;;;5027251;28;20041;-49
2022/06/11 08:43:00;;;;;;;2.75;1.75;;;24.10;53.50;;;;;;5031888;28;20053;-51
2022/06/11 08:45:38;;;;;;;3.13;1.90;;;24.10;54.30;;;;;;5027113;28;20642;-50
2022/06/11 08:48:27;;;;;;;1.90;1.45;;;24.10;54.30;;;;;;5031153;28;20042;-49
2022/06/11 08:51:07;;;;;;;6.05;1.80;;;24.10;54.20;;;;;;5033309;28;20037;-49
2022/06/11 08:53:37;;;;;;;3.97;1.58;;;24.20;53.70;;;;;;5039277;28;20507;-48
2022/06/11 08:56:09;;;;;;;4.00;1.77;;;24.30;53.90;;;;;;5030446;28;20038;-48
2022/06/11 08:58:53;;;;;;;3.00;1.37;;;24.40;54.30;;;;;;5033465;28;20041;-49
2022/06/11 09:02:00;;;;;;;3.10;1.50;;;24.50;53.30;;;;;;5025338;28;20631;-49
2022/06/11 09:04:58;;;;;;;4.32;1.52;;;24.60;53.20;;;;;;4975319;28;20094;-48
2022/06/11 09:07:46;;;;;;;3.40;1.50;;;24.70;52.50;;;;;;5021981;28;20049;-48
2022/06/11 09:10:26;;;;;;;3.30;1.55;;;24.70;52.30;;;;;;5040950;28;20098;-46
2022/06/11 09:13:04;;;;;;;6.20;2.03;;;24.70;52.00;;;;;;5033218;28;20049;-48
2022/06/11 09:16:09;;;;;;;6.20;2.17;;;24.80;51.80;;;;;;5027636;28;20045;-49
2022/06/11 09:19:04;;;;;;;4.85;1.77;;;24.70;51.70;;;;;;5014200;28;20047;-46
2022/06/11 09:21:44;;;;;;;3.75;1.63;;;24.80;52.10;;;;;;5028702;28;20111;-48
2022/06/11 09:24:38;;;;;;;3.80;2.00;;;24.70;51.60;;;;;;5040053;28;20528;-50
2022/06/11 09:27:27;;;;;;;5.15;2.17;;;24.80;51.80;;;;;;5022412;28;20045;-50
2022/06/11 09:30:09;;;;;;;4.50;2.03;;;24.80;52.50;;;;;;5038646;28;20037;-48
2022/06/11 09:32:51;;;;;;;3.17;2.13;;;24.90;52.80;;;;;;5028776;28;20056;-44
2022/06/11 09:35:43;;;;;;;2.25;1.40;;;24.90;52.30;;;;;;5033422;28;20045;-48
2022/06/11 09:38:31;;;;;;;2.47;1.60;;;25.00;51.80;;;;;;5037907;28;20432;-49
2022/06/11 09:41:23;;;;;;;2.28;1.67;;;25.00;51.10;;;;;;5026048;28;20134;-51
2022/06/11 09:44:17;;;;;;;2.38;1.58;;;25.00;52.00;;;;;;5033818;28;20041;-47
2022/06/11 09:47:04;;;;;;;4.38;1.38;;;25.00;51.20;;;;;;5022520;28;20041;-48
2022/06/11 09:50:03;;;;;;;5.20;1.70;;;24.90;51.90;;;;;;5026932;28;20650;-49
2022/06/11 09:52:41;;;;;;;6.03;1.92;;;24.90;50.00;;;;;;5015234;28;20055;-49
2022/06/11 09:55:21;;;;;;;2.90;0.90;;;24.90;50.60;;;;;;5041653;28;20041;-49
2022/06/11 09:58:05;;;;;;;4.80;1.40;;;24.90;50.20;;;;;;5026478;28;20053;-47
2022/06/11 10:00:58;;;;;;;3.00;1.38;;;24.90;50.90;;;;;;5027799;28;20045;-47
2022/06/11 10:03:35;;;;;;;3.42;1.88;;;24.90;50.80;;;;;;5032611;28;20049;-50
2022/06/11 10:06:18;;;;;;;3.92;1.65;;;24.90;51.20;;;;;;5028977;28;20120;-49
2022/06/11 10:08:48;;;;;;;3.40;1.88;;;24.90;50.40;;;;;;5033447;28;20048;-49
2022/06/11 10:11:22;;;;;;;2.92;1.40;;;24.90;50.10;;;;;;5022681;28;20092;-48
2022/06/11 10:14:28;;;;;;;2.72;1.70;;;25.00;50.80;;;;;;5029058;28;20049;-47
2022/06/11 10:16:52;;;;;;;4.07;1.80;;;25.10;51.30;;;;;;5022210;28;20050;-49
2022/06/11 10:19:54;;;;;;;3.75;1.48;;;25.10;50.30;;;;;;5046581;28;20099;-45
2022/06/11 10:22:34;;;;;;;3.90;1.80;;;25.10;50.70;;;;;;5008414;28;20057;-46
2022/06/11 10:25:22;;;;;;;2.83;1.30;;;25.20;49.80;;;;;;5041063;28;20095;-49
2022/06/11 10:28:00;;;;;;;3.03;1.42;;;25.20;50.00;;;;;;5036357;28;20049;-48
2022/06/11 10:30:48;;;;;;;1.65;1.35;;;25.30;50.30;;;;;;5038181;28;20037;-50
2022/06/11 10:33:29;;;;;;;4.30;1.40;;;25.40;49.40;;;;;;5041232;28;20167;-51
2022/06/11 10:36:02;;;;;;;3.87;1.37;;;25.40;49.50;;;;;;5033805;28;20037;-45
2022/06/11 10:38:42;;;;;;;3.90;1.30;;;25.40;50.60;;;;;;5032131;28;20041;-48
2022/06/11 10:41:20;;;;;;;3.47;1.58;;;25.50;49.40;;;;;;5029448;28;20095;-49
2022/06/11 10:43:58;;;;;;;4.35;1.80;;;25.50;49.90;;;;;;5038982;28;20509;-46
2022/06/11 10:46:25;;;;;;;5.18;1.80;;;25.50;50.50;;;;;;5029543;28;20096;-49
2022/06/11 10:48:52;;;;;;;5.75;1.65;;;25.60;50.70;;;;;;5038981;28;20532;-45
2022/06/11 10:51:24;;;;;;;3.53;1.50;;;25.60;51.00;;;;;;5033154;28;20041;-48
2022/06/11 10:54:18;;;;;;;3.60;1.58;;;25.70;50.80;;;;;;5036239;28;20120;-47
2022/06/11 10:56:57;;;;;;;3.17;1.60;;;25.90;50.70;;;;;;5033482;28;20052;-50
2022/06/11 10:59:48;;;;;;;2.42;1.33;;;26.10;50.10;;;;;;5047627;28;20056;-49
2022/06/11 11:02:25;;;;;;;6.43;1.43;;;26.20;50.10;;;;;;5030571;28;20134;-47
2022/06/11 11:05:12;;;;;;;4.03;1.63;;;26.30;49.40;;;;;;5045306;28;20045;-49
2022/06/11 11:07:43;;;;;;;2.45;1.70;;;26.40;48.60;;;;;;5030971;28;20396;-49
2022/06/11 11:10:34;;;;;;;2.03;1.30;;;26.40;49.60;;;;;;5039193;28;20033;-49
2022/06/11 11:13:12;;;;;;;3.97;1.42;;;26.40;49.70;;;;;;5039757;28;20618;-49
2022/06/11 11:15:44;;;;;;;2.97;1.70;;;26.40;50.20;;;;;;5034747;28;20634;-48
2022/06/11 11:18:33;;;;;;;2.30;1.33;;;26.40;49.10;;;;;;5032628;28;20087;-49
2022/06/11 11:21:02;;;;;;;4.22;1.63;;;26.50;49.50;;;;;;5036518;28;20045;-51
2022/06/11 11:23:41;;;;;;;4.60;1.90;;;26.40;49.60;;;;;;5036522;28;20136;-50
2022/06/11 11:26:13;;;;;;;1.80;1.25;;;26.40;49.60;;;;;;5033432;28;20052;-46
2022/06/11 11:29:11;;;;;;;1.30;1.20;;;26.40;50.20;;;;;;5038100;28;20041;-47
2022/06/11 11:31:58;;;;;;;4.53;1.65;;;26.40;50.10;;;;;;5030160;28;20509;-47
2022/06/11 11:34:28;;;;;;;2.78;1.98;;;26.40;50.00;;;;;;5040620;28;20412;-48
2022/06/11 11:37:24;;;;;;;4.10;1.63;;;26.40;49.40;;;;;;5038605;28;20599;-47
2022/06/11 11:40:03;;;;;;;3.30;1.73;;;26.40;49.10;;;;;;5046823;28;20037;-48
2022/06/11 11:42:40;;;;;;;2.17;1.05;;;26.40;49.10;;;;;;5034267;28;21458;-44
2022/06/11 11:45:22;;;;;;;1.55;0.90;;;26.40;49.70;;;;;;5040461;28;20048;-51
2022/06/11 11:47:54;;;;;;;3.33;1.52;;;26.40;49.20;;;;;;5029492;28;20042;-49
2022/06/11 11:50:26;;;;;;;;;;;26.30;48.70;;;;;;5029578;28;20042;-50
2022/06/11 11:53:01;;;;;;;1.77;1.20;;;26.40;48.80;;;;;;5025728;28;20010;-49
2022/06/11 11:55:32;;;;;;;1.70;0.80;;;26.30;48.40;;;;;;5031089;28;20056;-51
2022/06/11 11:58:28;;;;;;;1.90;1.15;;;26.30;48.90;;;;;;5038281;28;20072;-45
2022/06/11 12:00:58;;;;;;;2.35;0.90;;;26.30;49.10;;;;;;5008127;28;20046;-49
2022/06/11 12:03:38;;;;;;;2.58;1.05;;;26.30;49.00;;;;;;5039109;28;20091;-45
2022/06/11 12:06:07;;;;;;;2.17;1.05;;;26.40;47.90;;;;;;5033756;28;20429;-44
2022/06/11 12:08:44;;;;;;;1.52;0.82;;;26.40;48.00;;;;;;5037335;28;20079;-48
2022/06/11 12:11:26;;;;;;;4.32;1.13;;;26.50;47.00;;;;;;5028445;28;20606;-51
2022/06/11 12:13:59;;;;;;;1.63;0.80;;;26.50;46.60;;;;;;5039219;28;20501;-47
2022/06/11 12:16:28;;;;;;;2.05;0.60;;;26.50;45.90;;;;;;5029173;28;20103;-49
2022/06/11 12:19:14;;;;;;;3.28;0.70;;;26.50;45.70;;;;;;5035732;28;20147;-48
2022/06/11 12:21:44;;;;;;;3.05;0.75;;;26.50;46.60;;;;;;5030322;28;20075;-46
2022/06/11 12:24:24;;;;;;;1.27;0.70;;;26.50;46.50;;;;;;5044702;28;20775;-48
2022/06/11 12:27:00;;;;;;;1.45;0.50;;;26.50;45.70;;;;;;5026259;28;20599;-47
2022/06/11 12:29:45;;;;;;;3.25;0.80;;;26.50;44.70;;;;;;5038311;28;20045;-48
2022/06/11 12:32:17;;;;;;;1.73;0.60;;;26.60;45.40;;;;;;5036482;28;20532;-49
2022/06/11 12:34:44;;;;;;;2.33;0.80;;;26.50;45.30;;;;;;5045595;28;20057;-47
2022/06/11 12:37:39;;;;;;;2.63;0.80;;;26.50;44.90;;;;;;5027925;28;20041;-46
2022/06/11 12:40:23;;;;;;;3.47;0.70;;;26.60;46.20;;;;;;5041352;28;20567;-47
2022/06/11 12:43:08;;;;;;;2.13;0.88;;;26.60;45.20;;;;;;5039170;28;20136;-49
2022/06/11 12:45:58;;;;;;;1.77;0.73;;;26.70;44.90;;;;;;5030009;28;20102;-48
2022/06/11 12:48:40;;;;;;;3.17;1.00;;;26.80;44.20;;;;;;5039205;28;20037;-47
2022/06/11 12:51:17;;;;;;;1.42;0.60;;;26.90;44.40;;;;;;5000385;28;20111;-46
2022/06/11 12:53:57;;;;;;;5.47;1.30;;;27.00;44.70;;;;;;5033991;28;20409;-46
2022/06/11 12:57:02;;;;;;;3.33;0.80;;;27.10;43.10;;;;;;5028927;28;20500;-46
2022/06/11 12:59:34;;;;;;;1.90;0.88;;;27.20;43.60;;;;;;5026143;28;20053;-49
2022/06/11 13:02:28;;;;;;;2.05;0.60;;;27.30;44.10;;;;;;5034415;28;20045;-49
2022/06/11 13:05:24;;;;;;;2.88;1.10;;;27.40;44.00;;;;;;5016209;28;20135;-46
2022/06/11 13:08:09;;;;;;;2.83;0.98;;;27.50;44.80;;;;;;5035460;28;20474;-47
2022/06/11 13:11:02;;;;;;;3.17;0.80;;;27.60;43.60;;;;;;5032263;28;20045;-49
2022/06/11 13:13:47;;;;;;;2.63;1.15;;;27.80;44.50;;;;;;5001680;28;20068;-50
2022/06/11 13:16:33;;;;;;;1.30;0.77;;;27.90;42.80;;;;;;5026795;28;20053;-47
2022/06/11 13:19:06;;;;;;;3.38;0.65;;;28.10;42.40;;;;;;5036757;28;20124;-49
2022/06/11 13:21:41;;;;;;;7.85;1.20;;;28.30;43.20;;;;;;5031515;28;20107;-47
2022/06/11 13:24:27;;;;;;;1.75;0.85;;;28.50;42.90;;;;;;5034854;28;20103;-49
2022/06/11 13:27:05;;;;;;;2.88;1.00;;;28.70;42.10;;;;;;5029101;28;20298;-48
2022/06/11 13:29:36;;;;;;;1.58;0.82;;;28.90;41.40;;;;;;5036066;28;20049;-50
2022/06/11 13:32:47;;;;;;;2.47;1.10;;;29.40;42.80;;;;;;5032099;28;20080;-49
2022/06/11 13:35:26;;;;;;;1.15;0.70;;;30.10;41.60;;;;;;4958111;28;20058;-51